Terminal Aerodrome Forecast
Issued by NWS

Home | Current Version | Previous Version | Text Only | Print | Product List | Glossary On
Versions: 1 2 3 4 5 6 7 8 9 10 11 12 13 14 15 16 17 18 19 20
000
FTUS46 KLOX 010537
TAFSBP
TAF
KSBP 010537Z 0106/0206 32008KT P6SM BKN012
     FM010800 VRB03KT 6SM BR OVC007
     FM011000 VRB03KT 4SM BR OVC004
     FM011530 VRB03KT 5SM BR BKN007
     FM011700 28006KT P6SM SCT012
     FM012000 31012KT P6SM SKC
     FM020500 31006KT P6SM SKC=

USA.gov is the U.S. government's official web portal to all federal, state and local government web resources and services.